Time;durP1;ratioP1;P1;durP2;ratioP2;P2;SDS_P1;SDS_P2;PMS_P1;PMS_P2;Temp;Humidity;BMP_temperature;BMP_pressure;BME280_temperature;BME280_humidity;BME280_pressure;Samples;Min_cycle;Max_cycle;Signal;HPM_P1;HPM_P2
2022/03/07 00:01:34;;;;;;;6.30;4.90;;;;;;;5.11;71.77;94207.28;5054242;28;20194;-82
2022/03/07 00:04:02;;;;;;;8.53;5.77;;;;;;;4.75;71.74;94142.50;5054257;28;20677;-78
2022/03/07 00:06:29;;;;;;;6.83;5.40;;;;;;;5.76;72.12;94313.00;5053686;28;20221;-77
2022/03/07 00:08:56;;;;;;;7.57;5.53;;;;;;;5.78;72.15;94302.72;5052941;28;20203;-78
2022/03/07 00:11:23;;;;;;;8.07;5.43;;;;;;;5.63;72.20;94279.34;5052689;28;20227;-77
2022/03/07 00:13:50;;;;;;;10.00;5.53;;;;;;;5.79;72.15;94305.16;5053750;28;20206;-77
2022/03/07 00:16:18;;;;;;;8.63;5.67;;;;;;;5.79;72.13;94300.09;5053663;28;20188;-78
2022/03/07 00:18:45;;;;;;;8.47;6.30;;;;;;;5.72;72.23;94288.78;5053827;28;20198;-78
2022/03/07 00:21:12;;;;;;;6.97;5.73;;;;;;;5.81;72.22;94294.09;5054044;28;20202;-77
2022/03/07 00:23:39;;;;;;;8.67;6.20;;;;;;;5.81;72.14;94286.47;5053562;28;20663;-77
2022/03/07 00:26:06;;;;;;;7.83;6.33;;;;;;;5.82;72.20;94288.06;5053889;28;20187;-79
2022/03/07 00:28:33;;;;;;;8.07;5.40;;;;;;;5.83;72.19;94282.91;5052763;28;20689;-76
2022/03/07 00:31:00;;;;;;;9.23;6.47;;;;;;;5.85;72.42;94287.84;5053760;28;20195;-77
2022/03/07 00:33:29;;;;;;;8.10;5.90;;;;;;;5.85;72.27;94287.84;5052551;28;20227;-78
2022/03/07 00:35:55;;;;;;;10.03;6.13;;;;;;;5.83;72.54;94280.38;5052841;28;20198;-79
2022/03/07 00:38:22;;;;;;;9.60;6.53;;;;;;;5.59;72.29;94239.94;5053134;28;20191;-78
2022/03/07 00:40:49;;;;;;;10.13;6.13;;;;;;;5.81;72.52;94274.59;5053601;28;20638;-81
2022/03/07 00:43:16;;;;;;;8.43;6.17;;;;;;;5.81;72.53;94274.59;5053001;28;20187;-80
2022/03/07 00:45:43;;;;;;;9.00;6.50;;;;;;;5.79;72.46;94271.38;5054029;28;20281;-78
2022/03/07 00:48:10;;;;;;;9.27;6.30;;;;;;;5.79;72.53;94269.66;5053277;28;20202;-79
2022/03/07 00:50:42;;;;;;;9.33;6.43;;;;;;;5.79;72.45;94269.66;5053998;28;20187;-81
2022/03/07 00:53:10;;;;;;;7.43;5.80;;;;;;;5.81;72.54;94273.78;5054278;28;20207;-84
2022/03/07 00:55:37;;;;;;;7.40;6.03;;;;;;;5.69;72.56;94256.03;5054806;28;20191;-84
2022/03/07 00:58:04;;;;;;;8.33;5.83;;;;;;;5.83;72.55;94275.28;5054791;28;20199;-83
2022/03/07 01:00:31;;;;;;;9.47;6.07;;;;;;;5.85;72.39;94275.16;5053953;28;20198;-84
2022/03/07 01:03:01;;;;;;;7.37;5.33;;;;;;;5.84;72.54;94276.91;5055780;28;20200;-78
2022/03/07 01:05:28;;;;;;;7.20;5.67;;;;;;;5.85;72.46;94277.69;5054930;28;20642;-81
2022/03/07 01:07:56;;;;;;;8.37;6.17;;;;;;;5.88;72.46;94285.09;5052836;28;20187;-81
2022/03/07 01:10:23;;;;;;;8.70;5.83;;;;;;;5.90;72.44;94280.69;5053186;28;20183;-82
2022/03/07 01:12:50;;;;;;;9.67;6.13;;;;;;;5.49;72.23;94198.47;5054044;28;20284;-82
2022/03/07 01:15:17;;;;;;;9.97;6.87;;;;;;;5.76;72.67;94241.97;5054245;28;20666;-81
2022/03/07 01:17:44;;;;;;;8.60;6.43;;;;;;;5.91;72.43;94262.78;5053354;28;20190;-81
2022/03/07 01:20:12;;;;;;;9.10;7.33;;;;;;;5.77;72.45;94241.03;5052781;28;20229;-83
2022/03/07 01:22:41;;;;;;;9.37;6.90;;;;;;;5.59;72.33;94208.69;5055068;28;20187;-85
2022/03/07 01:25:10;;;;;;;9.43;6.67;;;;;;;5.96;72.15;94257.41;5052503;28;20191;-84
2022/03/07 01:27:37;;;;;;;8.33;6.60;;;;;;;5.97;72.16;94262.34;5054608;28;20198;-81
2022/03/07 01:30:06;;;;;;;8.60;6.80;;;;;;;5.67;72.17;94203.84;5053828;28;20628;-84
2022/03/07 01:32:33;;;;;;;9.27;7.10;;;;;;;5.99;72.28;94262.22;5052882;28;20566;-82
2022/03/07 01:35:00;;;;;;;9.33;6.47;;;;;;;5.83;72.31;94228.78;5054709;28;20206;-83
2022/03/07 01:37:27;;;;;;;9.07;6.57;;;;;;;5.89;72.22;94246.88;5053968;28;20195;-80
2022/03/07 01:39:53;;;;;;;9.03;6.17;;;;;;;5.96;72.22;94255.69;5053605;28;20194;-84
2022/03/07 01:42:22;;;;;;;10.27;7.10;;;;;;;5.93;72.22;94255.91;5053823;28;20190;-80
2022/03/07 01:44:49;;;;;;;10.10;6.63;;;;;;;5.86;72.43;94236.97;5053252;28;20202;-79
2022/03/07 01:47:15;;;;;;;8.03;5.77;;;;;;;5.58;72.19;94194.41;5052562;28;20651;-79
2022/03/07 01:49:43;;;;;;;7.57;6.43;;;;;;;5.48;72.13;94181.63;5050894;28;20198;-78
2022/03/07 01:52:12;;;;;;;9.13;6.70;;;;;;;5.93;72.26;94245.75;5050117;28;20256;-79
2022/03/07 01:54:38;;;;;;;6.93;5.87;;;;;;;5.94;72.27;94249.91;5051749;28;20244;-81
2022/03/07 01:57:05;;;;;;;8.97;5.80;;;;;;;5.73;72.23;94213.50;5052448;28;20202;-84
2022/03/07 01:59:37;;;;;;;7.10;5.70;;;;;;;5.86;72.29;94236.16;5052714;28;20195;-80
2022/03/07 02:02:04;;;;;;;10.00;6.33;;;;;;;5.94;72.34;94246.56;5052190;28;20186;-82
2022/03/07 02:04:31;;;;;;;7.63;5.90;;;;;;;5.81;72.43;94230.66;5052816;28;20187;-86
2022/03/07 02:06:57;;;;;;;9.30;5.90;;;;;;;5.95;72.44;94250.69;5053608;28;20194;-80
2022/03/07 02:09:24;;;;;;;8.33;6.20;;;;;;;5.95;72.39;94248.16;5052133;28;20194;-83
2022/03/07 02:11:51;;;;;;;8.37;5.93;;;;;;;5.95;72.41;94246.44;5052539;28;20187;-83
2022/03/07 02:14:22;;;;;;;6.90;5.87;;;;;;;5.75;72.32;94215.00;5050608;28;20229;-84
2022/03/07 02:16:51;;;;;;;8.33;5.73;;;;;;;5.85;72.32;94229.50;5051561;28;20190;-85
2022/03/07 02:19:19;;;;;;;6.37;5.77;;;;;;;5.94;72.26;94244.81;5051696;28;20222;-82
2022/03/07 02:21:47;;;;;;;8.43;6.03;;;;;;;5.94;72.33;94244.81;5052053;28;20646;-84
2022/03/07 02:24:16;;;;;;;7.73;5.93;;;;;;;5.55;72.52;94197.97;5052081;28;20199;-84
2022/03/07 02:26:43;;;;;;;8.17;5.70;;;;;;;5.94;72.32;94257.50;5051483;28;20580;-81
2022/03/07 02:29:11;;;;;;;7.43;5.67;;;;;;;5.96;72.14;94259.94;5051764;28;20199;-83
2022/03/07 02:31:40;;;;;;;8.20;6.50;;;;;;;5.96;72.30;94263.28;5051794;28;20605;-84
2022/03/07 02:34:06;;;;;;;6.93;5.10;;;;;;;5.99;72.25;94262.22;5051928;28;20215;-84
2022/03/07 02:36:33;;;;;;;7.13;5.80;;;;;;;5.75;72.16;94221.81;5051522;28;20191;-84
2022/03/07 02:39:00;;;;;;;7.10;5.60;;;;;;;6.02;72.22;94259.44;5051743;28;20190;-83
2022/03/07 02:41:28;;;;;;;6.17;5.10;;;;;;;5.98;72.39;94251.28;5051027;28;20195;-81
2022/03/07 02:43:55;;;;;;;6.17;5.27;;;;;;;5.84;71.93;94228.69;5051622;28;20187;-84
2022/03/07 02:46:22;;;;;;;8.17;5.87;;;;;;;6.03;72.22;94253.44;5051193;28;20195;-85
2022/03/07 02:48:49;;;;;;;6.53;5.43;;;;;;;5.96;71.87;94239.66;5051619;28;20195;-83
2022/03/07 02:51:16;;;;;;;8.33;5.03;;;;;;;6.05;72.00;94255.88;5056267;28;20194;-81
2022/03/07 02:53:42;;;;;;;5.73;5.13;;;;;;;6.06;72.14;94260.03;5054080;28;20728;-85
2022/03/07 02:56:09;;;;;;;7.00;5.37;;;;;;;6.05;72.01;94260.97;5053160;28;20191;-81
2022/03/07 02:58:38;;;;;;;5.50;4.90;;;;;;;6.08;72.08;94266.56;5052656;28;20198;-81
2022/03/07 03:01:05;;;;;;;6.40;5.00;;;;;;;6.08;72.00;94270.84;5049963;28;20579;-84
2022/03/07 03:03:32;;;;;;;8.60;5.07;;;;;;;6.09;71.81;94264.84;5052716;28;20194;-82
2022/03/07 03:05:59;;;;;;;6.70;5.23;;;;;;;6.08;71.86;94264.03;5053223;28;20578;-83
2022/03/07 03:08:26;;;;;;;7.50;5.57;;;;;;;6.09;71.79;94265.66;5054620;28;20191;-86
2022/03/07 03:10:53;;;;;;;7.33;5.67;;;;;;;6.12;71.94;94272.22;5056228;28;20186;-80
2022/03/07 03:13:22;;;;;;;6.03;5.13;;;;;;;6.13;72.07;94269.56;5052152;28;20202;-81
2022/03/07 03:15:52;;;;;;;9.23;5.70;;;;;;;6.14;71.87;94270.38;5050497;28;20578;-81
2022/03/07 03:18:19;;;;;;;6.47;5.23;;;;;;;5.88;72.04;94230.06;5050919;28;20191;-77
2022/03/07 03:20:47;;;;;;;6.80;5.00;;;;;;;6.15;71.95;94277.88;5049178;28;20226;-78
2022/03/07 03:23:14;;;;;;;7.53;4.97;;;;;;;6.01;72.02;94256.13;5051056;28;20182;-77
2022/03/07 03:25:41;;;;;;;6.43;5.37;;;;;;;6.15;71.77;94275.31;5050081;28;20202;-78
2022/03/07 03:28:08;;;;;;;8.03;5.60;;;;;;;5.96;71.90;94250.59;5050639;28;20197;-78
2022/03/07 03:30:35;;;;;;;6.53;5.30;;;;;;;6.09;71.91;94265.66;5049390;28;20190;-81
2022/03/07 03:33:04;;;;;;;6.93;5.43;;;;;;;6.17;71.90;94277.72;5050781;28;20194;-83
2022/03/07 03:35:31;;;;;;;6.27;5.33;;;;;;;6.11;72.11;94265.53;5049968;28;20233;-79
2022/03/07 03:37:58;;;;;;;7.10;5.00;;;;;;;6.08;71.71;94264.03;5030587;28;20227;-81
2022/03/07 03:40:25;;;;;;;5.73;4.80;;;;;;;6.16;72.08;94278.66;5030430;28;20199;-79
2022/03/07 03:42:52;;;;;;;5.57;4.90;;;;;;;6.14;71.98;94272.91;5031456;28;20184;-80
2022/03/07 03:45:19;;;;;;;5.57;5.07;;;;;;;6.14;71.95;94275.47;5031382;28;20191;-86
2022/03/07 03:47:46;;;;;;;6.40;5.30;;;;;;;6.14;72.13;94278.78;5047506;28;20191;-81
2022/03/07 03:50:15;;;;;;;6.33;4.97;;;;;;;6.14;71.85;94281.34;5050117;28;20190;-79
2022/03/07 03:52:43;;;;;;;5.50;4.63;;;;;;;6.14;71.83;94281.34;5050250;28;20198;-81
2022/03/07 03:55:12;;;;;;;6.93;5.20;;;;;;;6.14;71.81;94283.06;5050696;28;20219;-78
2022/03/07 03:57:40;;;;;;;6.63;5.13;;;;;;;6.12;71.82;94288.25;5050293;28;20191;-79
2022/03/07 04:00:09;;;;;;;5.00;4.40;;;;;;;6.12;71.72;94292.53;5050553;28;20226;-83
2022/03/07 04:02:36;;;;;;;5.00;4.50;;;;;;;6.09;71.86;94291.06;5051198;28;20210;-84
2022/03/07 04:05:03;;;;;;;5.80;4.33;;;;;;;6.11;71.67;94288.38;5050674;28;20187;-85
2022/03/07 04:07:31;;;;;;;5.93;4.70;;;;;;;6.11;71.60;94281.56;5050779;28;20576;-86
2022/03/07 04:09:58;;;;;;;4.97;4.47;;;;;;;6.11;71.57;94279.03;5050989;28;20195;-83
2022/03/07 04:12:25;;;;;;;5.57;4.37;;;;;;;6.11;71.68;94286.66;5050675;28;20195;-84
2022/03/07 04:14:52;;;;;;;5.07;4.57;;;;;;;5.84;71.56;94241.38;5051451;28;20223;-85
2022/03/07 04:17:18;;;;;;;6.07;4.43;;;;;;;6.13;71.56;94278.91;5050283;28;20650;-86
2022/03/07 04:19:45;;;;;;;7.33;4.83;;;;;;;6.13;71.74;94284.81;5049996;28;20234;-87
2022/03/07 04:22:12;;;;;;;5.20;4.70;;;;;;;6.15;71.68;94282.94;5050571;28;20187;-82
2022/03/07 04:24:41;;;;;;;5.83;4.80;;;;;;;6.17;71.70;94287.88;5050580;28;20245;-87
2022/03/07 04:27:08;;;;;;;6.57;4.77;;;;;;;6.17;71.61;94290.44;5052129;28;20191;-82
2022/03/07 04:29:35;;;;;;;4.93;4.43;;;;;;;5.92;71.63;94249.22;5050518;28;20214;-85
2022/03/07 04:32:02;;;;;;;4.93;4.40;;;;;;;6.19;71.63;94289.38;5050166;28;20259;-85
2022/03/07 04:34:29;;;;;;;6.10;4.70;;;;;;;5.85;71.33;94229.50;5049481;28;20222;-85
2022/03/07 04:36:55;;;;;;;5.40;4.23;;;;;;;6.22;71.43;94290.88;5050528;28;20202;-83
2022/03/07 04:39:23;;;;;;;7.10;5.23;;;;;;;6.22;71.40;94290.88;5049859;28;20229;-82
2022/03/07 04:41:52;;;;;;;5.23;4.47;;;;;;;6.00;71.37;94253.69;5051129;28;20195;-85
2022/03/07 04:44:18;;;;;;;5.93;4.93;;;;;;;6.01;71.34;94253.56;5054053;28;20187;-87
2022/03/07 04:46:45;;;;;;;6.40;4.67;;;;;;;5.95;71.45;94240.53;5054213;28;20190;-87
2022/03/07 04:49:12;;;;;;;5.70;5.10;;;;;;;6.24;71.34;94291.56;5053747;28;20267;-85
2022/03/07 04:51:40;;;;;;;8.20;5.03;;;;;;;6.24;71.33;94294.09;5053712;28;20659;-84
2022/03/07 04:54:07;;;;;;;7.07;5.27;;;;;;;6.24;71.28;94294.09;5053894;28;20230;-83
2022/03/07 04:56:34;;;;;;;6.60;4.87;;;;;;;5.86;71.18;94231.91;5053679;28;20191;-80
2022/03/07 04:59:03;;;;;;;5.63;4.47;;;;;;;6.16;71.21;94281.19;5056022;28;20179;-85
2022/03/07 05:01:30;;;;;;;6.97;5.37;;;;;;;6.18;71.51;94277.63;5053958;28;20250;-83
2022/03/07 05:03:56;;;;;;;5.73;5.13;;;;;;;6.24;71.29;94289.03;5054374;28;20191;-85
2022/03/07 05:06:23;;;;;;;6.37;5.27;;;;;;;6.24;71.25;94291.56;5053888;28;20194;-83
2022/03/07 05:08:50;;;;;;;6.10;5.27;;;;;;;6.10;71.09;94269.00;5054330;28;20190;-84
2022/03/07 05:11:17;;;;;;;8.33;5.30;;;;;;;6.23;71.32;94290.75;5054354;28;20195;-79
2022/03/07 05:13:44;;;;;;;7.33;5.17;;;;;;;6.23;71.22;94295.84;5053474;28;20183;-79
2022/03/07 05:16:12;;;;;;;5.33;4.73;;;;;;;6.09;71.36;94275.00;5053839;28;20186;-80
2022/03/07 05:18:39;;;;;;;7.33;5.40;;;;;;;6.24;71.26;94294.91;5052772;28;20709;-78
2022/03/07 05:21:06;;;;;;;5.67;5.07;;;;;;;5.99;71.31;94249.53;5052774;28;20211;-80
2022/03/07 05:23:33;;;;;;;5.77;5.10;;;;;;;6.27;71.31;94304.03;5053723;28;20183;-80
2022/03/07 05:25:59;;;;;;;6.20;5.20;;;;;;;6.26;71.16;94289.69;5053112;28;20202;-81
2022/03/07 05:28:26;;;;;;;9.43;5.37;;;;;;;6.26;71.28;94289.69;5053714;28;20202;-80
2022/03/07 05:30:53;;;;;;;7.03;5.90;;;;;;;6.26;71.31;94290.53;5052858;28;20195;-79
2022/03/07 05:33:21;;;;;;;6.63;5.57;;;;;;;6.21;71.08;94279.09;5053423;28;20199;-79
2022/03/07 05:35:48;;;;;;;5.70;5.10;;;;;;;6.28;71.35;94292.94;5052482;28;20214;-80
2022/03/07 05:38:15;;;;;;;7.00;5.47;;;;;;;6.31;71.17;94294.44;5052881;28;20191;-79
2022/03/07 05:40:42;;;;;;;6.67;5.73;;;;;;;6.33;71.29;94297.66;5052262;28;20187;-80
2022/03/07 05:43:09;;;;;;;6.60;5.57;;;;;;;6.27;71.38;94284.50;5051731;28;20202;-81
2022/03/07 05:45:36;;;;;;;6.00;5.37;;;;;;;6.40;71.06;94298.78;5052765;28;20249;-82
2022/03/07 05:48:03;;;;;;;5.63;5.03;;;;;;;5.61;70.88;94168.78;5052634;28;20195;-81
2022/03/07 05:50:31;;;;;;;6.73;6.13;;;;;;;6.45;70.86;94289.06;5051401;28;20191;-79
2022/03/07 05:52:58;;;;;;;6.20;5.60;;;;;;;6.41;71.02;94278.31;5042793;28;20199;-80
2022/03/07 05:55:25;;;;;;;7.40;5.83;;;;;;;6.44;70.66;94283.19;5051470;28;20221;-78
2022/03/07 05:57:54;;;;;;;6.33;5.73;;;;;;;6.53;70.76;94304.50;5040612;28;20196;-79
2022/03/07 06:00:21;;;;;;;6.03;5.43;;;;;;;6.54;70.48;94299.28;5038320;28;20214;-81
2022/03/07 06:02:48;;;;;;;7.13;5.77;;;;;;;6.55;70.36;94295.00;5063805;28;20191;-80
2022/03/07 06:05:15;;;;;;;6.47;5.23;;;;;;;6.06;70.48;94232.91;5050526;28;20282;-81
2022/03/07 06:07:43;;;;;;;5.30;4.80;;;;;;;6.57;70.29;94294.91;5048877;28;20198;-81
2022/03/07 06:10:10;;;;;;;6.67;4.70;;;;;;;6.57;70.17;94297.44;5049401;28;20179;-79
2022/03/07 06:12:37;;;;;;;7.90;5.33;;;;;;;6.58;70.26;94299.84;5047359;28;20202;-85
2022/03/07 06:15:06;;;;;;;6.07;5.20;;;;;;;6.51;70.17;94283.47;5052295;28;20226;-80
2022/03/07 06:17:33;;;;;;;6.43;5.80;;;;;;;6.46;70.06;94275.41;5051860;28;20257;-82
2022/03/07 06:20:01;;;;;;;6.50;5.90;;;;;;;6.60;70.08;94294.63;5050921;28;20257;-80
2022/03/07 06:22:28;;;;;;;6.77;5.13;;;;;;;6.62;70.15;94300.41;5051413;28;20308;-80
2022/03/07 06:24:56;;;;;;;6.33;5.50;;;;;;;6.13;70.11;94221.34;5051731;28;20625;-81
2022/03/07 06:27:23;;;;;;;5.87;5.23;;;;;;;6.31;69.96;94238.56;5051657;28;20191;-81
2022/03/07 06:29:51;;;;;;;6.43;5.37;;;;;;;6.70;69.99;94300.59;5050812;28;20194;-82
2022/03/07 06:32:20;;;;;;;7.50;5.77;;;;;;;6.58;69.96;94276.19;5051914;28;20180;-83
2022/03/07 06:34:46;;;;;;;5.77;5.20;;;;;;;6.76;69.96;94302.63;5050413;28;20210;-82
2022/03/07 06:37:13;;;;;;;7.10;5.87;;;;;;;6.50;69.98;94257.25;5051009;28;20191;-82
2022/03/07 06:39:40;;;;;;;6.97;6.27;;;;;;;6.84;69.81;94309.63;5049655;28;20274;-76
2022/03/07 06:42:09;;;;;;;6.87;6.27;;;;;;;6.89;69.75;94307.53;5051029;28;20585;-85
2022/03/07 06:44:39;;;;;;;7.03;6.23;;;;;;;6.93;69.59;94312.22;5051168;28;20199;-86
2022/03/07 06:47:06;;;;;;;8.07;6.10;;;;;;;6.92;69.59;94292.84;5050954;28;20190;-78
2022/03/07 06:49:33;;;;;;;7.53;6.70;;;;;;;6.94;69.44;94285.88;5050767;28;20188;-82
2022/03/07 06:52:00;;;;;;;6.77;6.07;;;;;;;7.11;69.27;94302.28;5051102;28;20597;-81
2022/03/07 06:54:27;;;;;;;8.17;6.97;;;;;;;6.96;69.21;94266.25;5050702;28;20187;-77
2022/03/07 06:56:54;;;;;;;7.27;6.43;;;;;;;7.25;69.11;94301.97;5050973;28;20194;-82
2022/03/07 06:59:22;;;;;;;13.17;7.40;;;;;;;7.33;68.85;94303.88;5056276;28;20206;-80
2022/03/07 07:01:51;;;;;;;9.90;7.63;;;;;;;7.42;68.66;94302.28;5048158;28;20206;-79
2022/03/07 07:04:18;;;;;;;8.00;7.17;;;;;;;7.27;68.71;94267.03;5048470;28;20191;-80
2022/03/07 07:06:45;;;;;;;9.20;7.53;;;;;;;7.57;68.48;94308.66;5047091;28;20210;-77
2022/03/07 07:09:12;;;;;;;12.03;7.13;;;;;;;7.65;68.33;94302.91;5048655;28;20191;-77
2022/03/07 07:11:38;;;;;;;9.60;6.93;;;;;;;7.70;68.18;94309.22;5047859;28;20179;-75
2022/03/07 07:14:05;;;;;;;9.13;7.60;;;;;;;7.74;68.29;94305.47;5047984;28;20978;-79
2022/03/07 07:16:34;;;;;;;8.80;7.90;;;;;;;7.71;67.91;94292.22;5048178;28;20210;-78
2022/03/07 07:19:00;;;;;;;8.93;6.83;;;;;;;7.82;67.66;94309.94;5053160;28;20243;-78
2022/03/07 07:21:27;;;;;;;8.37;7.30;;;;;;;7.86;67.83;94308.75;5050146;28;20206;-78
2022/03/07 07:23:54;;;;;;;10.90;7.13;;;;;;;7.82;67.51;94297.22;5049800;28;20206;-78
2022/03/07 07:26:21;;;;;;;9.27;7.00;;;;;;;7.94;67.52;94313.16;5051470;28;20205;-79
2022/03/07 07:28:48;;;;;;;11.43;7.90;;;;;;;7.98;67.47;94309.41;5058875;28;20191;-78
2022/03/07 07:31:15;;;;;;;8.60;7.73;;;;;;;8.02;67.30;94313.31;5053736;28;20667;-79
2022/03/07 07:33:44;;;;;;;10.57;7.63;;;;;;;8.06;67.20;94314.66;5050818;28;20194;-75
2022/03/07 07:36:10;;;;;;;10.77;7.67;;;;;;;8.10;66.95;94312.66;5048291;28;20288;-79
2022/03/07 07:38:37;;;;;;;10.63;8.87;;;;;;;8.12;66.77;94324.34;5049201;28;20207;-79
2022/03/07 07:41:04;;;;;;;11.43;8.43;;;;;;;8.15;66.94;94318.16;5049138;28;20195;-80
2022/03/07 07:43:31;;;;;;;12.13;8.67;;;;;;;7.96;66.51;94291.72;5049011;28;20195;-79
2022/03/07 07:45:58;;;;;;;8.80;7.63;;;;;;;8.20;66.61;94333.84;5048600;28;20198;-80
2022/03/07 07:48:26;;;;;;;9.23;8.00;;;;;;;7.83;66.61;94272.56;5048706;28;20639;-80
2022/03/07 07:50:54;;;;;;;8.03;7.13;;;;;;;8.22;66.41;94326.88;5048043;28;20557;-78
2022/03/07 07:53:21;;;;;;;7.83;6.83;;;;;;;8.24;66.31;94323.25;5048590;28;20876;-80
2022/03/07 07:55:48;;;;;;;9.23;7.43;;;;;;;8.27;66.06;94333.19;5053786;28;20222;-80
2022/03/07 07:58:15;;;;;;;7.57;6.50;;;;;;;8.29;66.06;94330.53;5054460;28;20195;-80
2022/03/07 08:00:42;;;;;;;6.93;6.00;;;;;;;8.32;65.65;94337.88;5049086;28;20811;-79
2022/03/07 08:03:09;;;;;;;7.03;5.30;;;;;;;8.36;65.65;94336.69;5047974;28;20669;-79
2022/03/07 08:05:36;;;;;;;8.67;6.80;;;;;;;8.40;65.64;94343.16;5048157;28;20193;-79
2022/03/07 08:08:05;;;;;;;7.03;5.57;;;;;;;8.45;65.38;94335.09;5048258;28;20667;-79
2022/03/07 08:10:32;;;;;;;8.83;5.97;;;;;;;8.41;65.38;94324.38;5052075;28;20190;-79
2022/03/07 08:12:59;;;;;;;6.07;5.40;;;;;;;8.44;65.17;94323.31;5058760;28;20195;-80
2022/03/07 08:15:26;;;;;;;6.30;5.57;;;;;;;8.53;64.90;94333.50;5047799;28;20219;-80
2022/03/07 08:17:53;;;;;;;5.40;4.90;;;;;;;8.57;64.94;94338.34;5061094;28;20233;-80
2022/03/07 08:20:22;;;;;;;5.33;4.93;;;;;;;8.27;64.82;94283.97;5056244;28;20253;-79
2022/03/07 08:22:50;;;;;;;8.67;5.70;;;;;;;8.63;64.63;94336.03;5056708;28;20198;-80
2022/03/07 08:25:19;;;;;;;7.57;5.53;;;;;;;8.67;64.49;94341.69;5054677;28;20187;-80
2022/03/07 08:27:46;;;;;;;6.27;5.13;;;;;;;8.38;64.29;94296.63;5049761;28;20218;-81
2022/03/07 08:30:15;;;;;;;3.73;3.37;;;;;;;9.10;100.00;94342.97;5049414;28;20234;-79
2022/03/07 08:32:42;;;;;;;4.20;3.80;;;;;;;9.98;100.00;94339.97;5061608;28;20194;-79
2022/03/07 08:35:11;;;;;;;6.30;4.83;;;;;;;10.82;100.00;94338.09;5050369;28;20242;-78
2022/03/07 08:37:39;;;;;;;5.53;4.83;;;;;;;11.18;97.83;94339.66;5050457;28;20227;-83
2022/03/07 08:40:07;;;;;;;5.73;4.63;;;;;;;11.25;92.14;94344.94;5050408;28;20198;-81
2022/03/07 08:42:36;;;;;;;5.67;4.70;;;;;;;11.20;87.17;94342.84;5050303;28;20199;-82
2022/03/07 08:45:03;;;;;;;5.20;4.70;;;;;;;11.11;82.91;94346.31;5050075;28;20191;-81
2022/03/07 08:47:30;;;;;;;6.40;5.57;;;;;;;10.99;79.96;94344.94;5058979;28;20202;-81
2022/03/07 08:49:56;;;;;;;8.03;6.07;;;;;;;10.84;77.12;94348.97;5056405;28;20669;-82
2022/03/07 08:52:23;;;;;;;10.83;7.67;;;;;;;10.71;74.80;94349.38;5051610;28;20188;-83
2022/03/07 08:54:50;;;;;;;9.67;8.27;;;;;;;10.56;73.22;94343.94;5057892;28;20191;-80
2022/03/07 08:57:17;;;;;;;11.10;8.33;;;;;;;10.44;71.79;94347.66;5056855;28;20195;-83
2022/03/07 08:59:45;;;;;;;10.53;8.33;;;;;;;10.31;70.53;94345.44;5056968;28;20191;-83
2022/03/07 09:02:12;;;;;;;11.60;9.00;;;;;;;10.01;69.74;94315.88;5057145;28;20187;-81
2022/03/07 09:04:40;;;;;;;10.77;9.13;;;;;;;9.84;68.80;94311.53;5052049;28;20225;-83
2022/03/07 09:07:08;;;;;;;10.00;8.10;;;;;;;9.74;68.31;94314.94;5054071;28;20194;-82
2022/03/07 09:09:35;;;;;;;11.83;8.30;;;;;;;9.87;67.44;94357.25;5065028;28;20197;-82
2022/03/07 09:12:03;;;;;;;10.90;8.43;;;;;;;9.32;67.01;94286.50;5045981;28;20198;-84
2022/03/07 09:14:30;;;;;;;12.60;8.83;;;;;;;9.46;66.81;94319.25;5047308;28;20228;-79
2022/03/07 09:16:58;;;;;;;12.27;8.57;;;;;;;9.40;66.36;94321.53;5055151;28;20247;-81
2022/03/07 09:19:25;;;;;;;9.50;7.83;;;;;;;9.14;65.84;94288.19;5066702;28;20732;-81
2022/03/07 09:21:52;;;;;;;8.93;7.77;;;;;;;9.44;65.75;94349.19;5060851;28;20197;-79
2022/03/07 09:24:19;;;;;;;11.33;8.13;;;;;;;9.09;65.37;94303.13;5065840;28;20237;-83
2022/03/07 09:26:46;;;;;;;11.43;8.97;;;;;;;9.38;65.27;94348.97;5055542;28;20195;-78
2022/03/07 09:29:13;;;;;;;11.07;8.80;;;;;;;9.35;65.23;94339.81;5049126;28;20202;-76
2022/03/07 09:31:41;;;;;;;10.30;8.27;;;;;;;9.21;64.94;94323.22;5048586;28;20257;-81
2022/03/07 09:34:10;;;;;;;12.10;9.20;;;;;;;9.31;64.78;94343.59;5047133;28;20927;-76
2022/03/07 09:36:37;;;;;;;10.63;8.17;;;;;;;8.98;64.45;94287.03;5055354;28;20218;-81
2022/03/07 09:39:04;;;;;;;9.30;8.13;;;;;;;9.30;64.56;94340.25;5053938;28;20202;-79
2022/03/07 09:41:31;;;;;;;11.30;8.53;;;;;;;9.31;64.63;94335.94;5047117;28;20211;-79
2022/03/07 09:43:58;;;;;;;10.90;8.13;;;;;;;9.24;64.41;94324.66;5045258;28;20214;-79
2022/03/07 09:46:26;;;;;;;12.80;9.60;;;;;;;9.03;64.23;94294.28;5046518;28;20195;-79
2022/03/07 09:48:54;;;;;;;12.67;8.73;;;;;;;9.29;64.16;94328.44;5067078;28;20201;-79
2022/03/07 09:51:22;;;;;;;10.50;8.10;;;;;;;9.27;63.93;94332.84;5047099;28;20183;-79
2022/03/07 09:53:49;;;;;;;8.70;7.63;;;;;;;9.03;63.84;94296.81;5048007;28;20202;-76
2022/03/07 09:56:16;;;;;;;8.80;7.10;;;;;;;9.25;63.66;94323.75;5047981;28;20217;-79
2022/03/07 09:58:43;;;;;;;12.13;8.03;;;;;;;8.85;63.68;94261.03;5048120;28;20199;-79
2022/03/07 10:01:13;;;;;;;9.03;6.87;;;;;;;8.91;63.35;94269.88;5048168;28;20191;-80
2022/03/07 10:03:40;;;;;;;9.07;7.10;;;;;;;9.28;63.25;94328.56;5058921;28;20285;-83
2022/03/07 10:06:12;;;;;;;12.47;7.53;;;;;;;9.27;63.15;94332.06;5059722;28;20210;-79
2022/03/07 10:08:52;;;;;;;8.03;6.33;;;;;;;9.29;63.02;94335.28;5052008;28;20229;-80
2022/03/07 10:11:19;;;;;;;9.17;7.50;;;;;;;9.22;62.95;94326.56;5048048;28;20190;-79
2022/03/07 10:13:51;;;;;;;8.33;7.10;;;;;;;9.04;62.71;94303.53;5047778;28;20222;-79
2022/03/07 10:16:20;;;;;;;9.67;7.10;;;;;;;9.25;62.88;94334.75;5045802;28;20215;-79
2022/03/07 10:18:52;;;;;;;11.33;6.77;;;;;;;9.24;62.71;94339.97;5058291;28;20881;-79
2022/03/07 10:21:24;;;;;;;8.63;6.50;;;;;;;9.21;62.63;94333.44;5048187;28;20188;-79
2022/03/07 10:23:53;;;;;;;8.40;6.50;;;;;;;9.20;62.48;94329.28;5047338;28;20195;-79
2022/03/07 10:26:22;;;;;;;9.93;6.80;;;;;;;9.21;62.36;94335.19;5051713;28;20198;-80
2022/03/07 10:28:54;;;;;;;11.20;6.80;;;;;;;8.90;62.12;94281.03;5052153;28;20210;-79
2022/03/07 10:31:21;;;;;;;7.17;6.17;;;;;;;9.24;62.29;94335.72;5056792;28;20198;-80
2022/03/07 10:33:49;;;;;;;8.13;6.80;;;;;;;9.12;62.27;94308.75;5053386;28;20199;-79
2022/03/07 10:36:16;;;;;;;7.47;6.10;;;;;;;9.27;62.03;94325.19;5056296;28;20229;-79
2022/03/07 10:38:44;;;;;;;8.90;5.73;;;;;;;9.31;61.99;94328.28;5060627;28;20209;-80
2022/03/07 10:41:13;;;;;;;7.63;6.00;;;;;;;8.13;61.82;94145.13;5051856;28;20959;-79
2022/03/07 10:43:49;;;;;;;12.40;7.73;;;;;;;9.32;62.02;94329.09;5047538;28;20199;-78
2022/03/07 10:46:26;;;;;;;11.30;8.40;;;;;;;9.34;61.76;94329.78;5059308;28;20191;-79
2022/03/07 10:48:54;;;;;;;8.60;7.67;;;;;;;9.04;61.77;94283.94;5054252;28;20279;-78
2022/03/07 10:51:22;;;;;;;11.10;8.13;;;;;;;9.34;61.78;94324.66;5053094;28;20190;-79
2022/03/07 10:53:49;;;;;;;13.53;8.70;;;;;;;9.36;61.88;94320.22;5060288;28;20182;-77
2022/03/07 10:56:21;;;;;;;12.30;8.13;;;;;;;9.38;61.69;94318.34;5063353;28;20206;-77
2022/03/07 10:58:49;;;;;;;12.20;8.63;;;;;;;9.20;61.55;94288.47;5051843;28;20744;-78
2022/03/07 11:01:27;;;;;;;12.17;8.50;;;;;;;9.45;61.38;94315.06;5055059;28;20197;-79
2022/03/07 11:03:54;;;;;;;12.27;9.23;;;;;;;9.15;61.52;94267.63;5044778;28;20267;-76
2022/03/07 11:06:21;;;;;;;12.43;8.70;;;;;;;9.48;61.73;94319.91;5050917;28;20187;-79
2022/03/07 11:08:48;;;;;;;11.87;8.70;;;;;;;9.42;61.38;94299.25;5056334;28;20187;-78
2022/03/07 11:11:16;;;;;;;12.10;8.50;;;;;;;9.30;61.49;94275.66;5052457;28;20865;-79
2022/03/07 11:13:45;;;;;;;13.77;9.87;;;;;;;9.36;61.27;94298.03;5049205;28;20199;-79
2022/03/07 11:16:13;;;;;;;12.83;8.43;;;;;;;9.49;61.22;94316.41;5056416;28;20721;-79
2022/03/07 11:18:41;;;;;;;11.97;7.97;;;;;;;9.48;61.33;94317.34;5047130;28;20678;-80
2022/03/07 11:21:08;;;;;;;11.03;7.90;;;;;;;8.89;61.11;94224.09;5055053;28;20186;-80
2022/03/07 11:23:35;;;;;;;9.73;7.57;;;;;;;9.37;61.39;94301.41;5052342;28;20214;-79
2022/03/07 11:26:04;;;;;;;11.73;7.80;;;;;;;9.28;61.17;94285.19;5056317;28;20193;-78
2022/03/07 11:28:32;;;;;;;11.17;8.10;;;;;;;9.41;61.10;94308.66;5052967;28;20198;-82
2022/03/07 11:31:00;;;;;;;10.70;8.57;;;;;;;9.41;61.15;94302.72;5047276;28;20202;-81
2022/03/07 11:33:33;;;;;;;9.30;8.20;;;;;;;9.38;61.50;94308.13;5050039;28;20195;-79
2022/03/07 11:36:03;;;;;;;10.80;8.40;;;;;;;9.33;61.01;94298.34;5055731;28;20226;-80
2022/03/07 11:38:31;;;;;;;11.63;8.23;;;;;;;9.32;61.16;94301.03;5055111;28;20191;-81
2022/03/07 11:41:00;;;;;;;11.03;8.80;;;;;;;9.12;61.29;94274.78;5053214;28;20205;-80